createdAt,value
2018-11-27T00:01:31.024Z,69.26
2018-11-27T00:06:33.669Z,68.86
2018-11-27T00:11:36.284Z,69.29
2018-11-27T00:16:38.933Z,69.14
2018-11-27T00:21:41.566Z,69.34
2018-11-27T00:26:44.213Z,69.31
2018-11-27T00:31:46.784Z,69.41
2018-11-27T00:36:49.362Z,69.96
2018-11-27T00:41:51.926Z,69.72
2018-11-27T00:46:54.558Z,69.83
2018-11-27T00:51:57.193Z,69.61
2018-11-27T00:56:59.841Z,69.13
2018-11-27T01:02:02.533Z,69.57
2018-11-27T01:07:05.156Z,69.89
2018-11-27T01:12:07.751Z,69.94
2018-11-27T01:17:10.365Z,69.99
2018-11-27T01:22:12.977Z,69.50
2018-11-27T01:27:15.622Z,70.16
2018-11-27T01:32:18.188Z,70.18
2018-11-27T01:37:20.843Z,69.50
2018-11-27T01:42:23.486Z,69.95
2018-11-27T01:47:26.144Z,70.46
2018-11-27T01:52:28.831Z,69.93
2018-11-27T01:57:31.437Z,70.35
2018-11-27T02:02:34.173Z,70.71
2018-11-27T02:07:36.827Z,70.05
2018-11-27T02:12:40.962Z,70.33
2018-11-27T02:17:43.569Z,70.48
2018-11-27T02:22:46.164Z,70.42
2018-11-27T02:27:48.781Z,70.52
2018-11-27T02:32:51.396Z,70.56
2018-11-27T02:37:55.559Z,69.92
2018-11-27T02:42:58.217Z,70.18
2018-11-27T02:48:00.829Z,70.26
2018-11-27T02:53:03.453Z,70.11
2018-11-27T02:58:06.266Z,70.05
2018-11-27T03:03:08.864Z,70.88
2018-11-27T03:08:11.469Z,70.41
2018-11-27T03:13:14.149Z,69.88
2018-11-27T03:18:16.825Z,70.03
2018-11-27T03:23:19.675Z,70.20
2018-11-27T03:28:22.314Z,70.01
2018-11-27T03:33:24.960Z,70.12
2018-11-27T03:38:27.607Z,69.86
2018-11-27T03:43:30.234Z,70.45
2018-11-27T03:48:32.873Z,70.45
2018-11-27T03:53:35.502Z,70.02
2018-11-27T03:58:38.292Z,70.00
2018-11-27T04:03:40.859Z,70.23
2018-11-27T04:08:43.480Z,70.48
2018-11-27T04:13:46.106Z,70.33
2018-11-27T04:18:49.289Z,69.53
2018-11-27T04:23:52.595Z,70.22
2018-11-27T04:28:55.219Z,69.79
2018-11-27T04:33:57.850Z,70.20
2018-11-27T04:39:00.598Z,70.10
2018-11-27T04:44:03.279Z,69.83
2018-11-27T04:49:06.373Z,70.23
2018-11-27T04:54:08.961Z,69.91
2018-11-27T04:59:11.593Z,70.17
2018-11-27T05:04:14.202Z,69.88
2018-11-27T05:09:16.901Z,69.65
2018-11-27T05:14:19.732Z,69.91
2018-11-27T05:19:22.390Z,70.29
2018-11-27T05:24:25.000Z,69.83
2018-11-27T05:29:27.805Z,69.98
2018-11-27T05:34:30.421Z,69.88
2018-11-27T05:39:32.960Z,69.78
2018-11-27T05:44:35.506Z,69.91
2018-11-27T05:49:38.156Z,69.80
2018-11-27T05:54:40.768Z,69.76
2018-11-27T05:59:43.376Z,69.67
2018-11-27T06:04:46.958Z,69.99
2018-11-27T06:09:49.667Z,70.28
2018-11-27T06:14:52.309Z,69.66
2018-11-27T06:19:54.879Z,70.05
2018-11-27T06:24:57.490Z,70.02
2018-11-27T06:30:00.078Z,69.82
2018-11-27T06:35:02.826Z,70.18
2018-11-27T06:40:13.097Z,69.71
2018-11-27T06:45:17.107Z,70.02
2018-11-27T06:50:20.920Z,69.87
2018-11-27T06:55:24.049Z,69.63
2018-11-27T07:00:27.915Z,69.50
2018-11-27T07:05:30.656Z,69.22
2018-11-27T07:10:33.769Z,69.91
2018-11-27T07:15:36.488Z,69.53
2018-11-27T07:20:39.166Z,69.14
2018-11-27T07:25:41.815Z,69.71
2018-11-27T07:30:44.435Z,69.58
2018-11-27T07:35:47.137Z,69.41
2018-11-27T07:40:49.851Z,68.87
2018-11-27T07:45:55.217Z,69.65
2018-11-27T07:50:55.249Z,68.80
2018-11-27T07:55:57.921Z,69.08
2018-11-27T08:01:00.876Z,68.87
2018-11-27T08:06:03.475Z,69.05
2018-11-27T08:11:06.081Z,68.31
2018-11-27T08:16:08.780Z,68.75
2018-11-27T08:21:11.421Z,68.09
2018-11-27T08:26:14.009Z,67.84
2018-11-27T08:31:16.670Z,68.29
2018-11-27T08:36:19.470Z,67.69
2018-11-27T08:41:22.240Z,68.14
2018-11-27T08:46:25.341Z,67.65
2018-11-27T08:51:27.903Z,67.58
2018-11-27T08:56:30.693Z,67.67
2018-11-27T09:01:33.341Z,66.43
2018-11-27T09:06:36.007Z,66.98
2018-11-27T09:11:38.694Z,67.27
2018-11-27T09:16:41.489Z,66.68
2018-11-27T09:21:44.168Z,66.61
2018-11-27T09:26:50.626Z,67.16
2018-11-27T09:31:53.301Z,66.80
2018-11-27T09:36:55.963Z,66.45
2018-11-27T09:41:58.780Z,65.90
2018-11-27T09:47:01.397Z,65.87
2018-11-27T09:52:04.120Z,66.25
2018-11-27T09:57:06.773Z,65.68
2018-11-27T10:02:09.381Z,65.30
2018-11-27T10:07:12.109Z,65.38
2018-11-27T10:12:14.794Z,66.02
2018-11-27T10:17:17.425Z,66.08
2018-11-27T10:22:20.112Z,66.01
2018-11-27T10:27:22.736Z,65.32
2018-11-27T10:32:25.351Z,65.48
2018-11-27T10:37:27.917Z,65.94
2018-11-27T10:42:30.632Z,66.31
2018-11-27T10:47:33.289Z,66.34
2018-11-27T10:52:36.113Z,65.75
2018-11-27T10:57:38.833Z,66.33
2018-11-27T11:02:41.442Z,66.22
2018-11-27T11:07:44.225Z,66.38
2018-11-27T11:12:46.862Z,66.35
2018-11-27T11:17:49.591Z,66.15
2018-11-27T11:22:52.622Z,66.02
2018-11-27T11:27:57.399Z,65.88
2018-11-27T11:33:00.181Z,65.47
2018-11-27T11:38:03.391Z,65.73
2018-11-27T11:43:06.854Z,65.71
2018-11-27T11:48:09.678Z,65.75
2018-11-27T11:53:14.934Z,65.21
2018-11-27T11:58:17.915Z,65.50
2018-11-27T12:03:20.907Z,65.46
2018-11-27T12:08:23.817Z,65.41
2018-11-27T12:13:26.565Z,65.09
2018-11-27T12:18:29.395Z,64.67
2018-11-27T12:23:32.465Z,64.71
2018-11-27T12:28:35.394Z,64.72
2018-11-27T12:33:38.281Z,64.96
2018-11-27T12:38:40.880Z,64.10
2018-11-27T12:43:43.582Z,64.70
2018-11-27T12:48:46.165Z,64.86
2018-11-27T12:53:48.793Z,64.64
2018-11-27T12:58:51.444Z,64.41
2018-11-27T13:03:54.305Z,64.30
2018-11-27T13:08:56.978Z,64.15
2018-11-27T13:13:59.668Z,63.64
2018-11-27T13:19:02.377Z,63.90
2018-11-27T13:24:05.424Z,63.99
2018-11-27T13:29:08.076Z,63.72
2018-11-27T13:34:13.488Z,63.61
2018-11-27T13:39:33.054Z,63.45
2018-11-27T13:44:36.077Z,63.32
2018-11-27T13:49:38.648Z,63.26
2018-11-27T13:54:41.241Z,63.12
2018-11-27T13:59:43.874Z,63.09
2018-11-27T14:04:46.603Z,62.13
2018-11-27T14:09:49.216Z,62.15
2018-11-27T14:14:51.863Z,62.13
2018-11-27T14:19:54.518Z,61.59
2018-11-27T14:24:57.150Z,61.51
2018-11-27T14:29:59.736Z,61.07
2018-11-27T14:35:02.488Z,60.94
2018-11-27T14:40:13.962Z,61.06
2018-11-27T14:45:19.291Z,61.13
2018-11-27T14:50:21.905Z,61.35
2018-11-27T14:55:27.492Z,61.54
2018-11-27T15:00:30.314Z,62.03
2018-11-27T15:05:35.824Z,61.95
2018-11-27T15:10:38.444Z,62.34
2018-11-27T15:15:41.102Z,62.58
2018-11-27T15:20:43.758Z,62.89
2018-11-27T15:25:46.444Z,63.21
2018-11-27T15:30:49.245Z,63.04
2018-11-27T15:35:51.884Z,62.70
2018-11-27T15:40:54.603Z,63.12
2018-11-27T15:45:57.375Z,63.23
2018-11-27T15:51:00.012Z,63.62
2018-11-27T15:56:02.751Z,63.85
2018-11-27T16:01:05.926Z,63.90
2018-11-27T16:06:08.603Z,64.33
2018-11-27T16:11:11.200Z,64.39
2018-11-27T16:16:13.818Z,64.48
2018-11-27T16:21:16.404Z,64.36
2018-11-27T16:26:18.980Z,64.53
2018-11-27T16:31:21.587Z,64.89
2018-11-27T16:36:24.131Z,64.64
2018-11-27T16:41:26.782Z,64.78
2018-11-27T16:46:29.428Z,65.58
2018-11-27T16:51:32.076Z,64.87
2018-11-27T16:56:34.640Z,65.58
2018-11-27T17:01:37.318Z,65.27
2018-11-27T17:06:39.905Z,65.67
2018-11-27T17:11:42.476Z,65.14
2018-11-27T17:16:45.076Z,65.49
2018-11-27T17:21:47.732Z,65.42
2018-11-27T17:26:50.282Z,65.99
2018-11-27T17:31:52.925Z,65.79
2018-11-27T17:36:55.539Z,66.08
2018-11-27T17:41:59.018Z,66.13
2018-11-27T17:47:01.929Z,66.76
2018-11-27T17:52:04.483Z,66.53
2018-11-27T17:57:07.073Z,67.19
2018-11-27T18:02:09.689Z,66.95
2018-11-27T18:07:12.328Z,67.09
2018-11-27T18:12:14.992Z,67.16
2018-11-27T18:17:17.581Z,67.44
2018-11-27T18:22:20.197Z,68.08
2018-11-27T18:27:22.780Z,67.56
2018-11-27T18:32:25.473Z,67.93
2018-11-27T18:37:28.069Z,67.83
2018-11-27T18:42:30.654Z,67.99
2018-11-27T18:47:33.319Z,68.24
2018-11-27T18:52:36.016Z,68.29
2018-11-27T18:57:39.376Z,68.81
2018-11-27T19:02:42.244Z,68.25
2018-11-27T19:07:44.857Z,68.47
2018-11-27T19:12:48.099Z,69.11
2018-11-27T19:17:53.500Z,68.86
2018-11-27T19:22:56.141Z,68.83
2018-11-27T19:27:58.729Z,68.90
2018-11-27T19:33:01.360Z,69.24
2018-11-27T19:38:06.040Z,69.01
2018-11-27T19:43:08.682Z,69.45
2018-11-27T19:48:12.800Z,69.49
2018-11-27T19:53:15.942Z,68.99
2018-11-27T19:58:18.600Z,69.64
2018-11-27T20:03:21.209Z,69.67
2018-11-27T20:08:24.862Z,69.09
2018-11-27T20:13:27.675Z,69.53
2018-11-27T20:18:30.285Z,69.36
2018-11-27T20:23:32.955Z,69.37
2018-11-27T20:28:35.597Z,69.42
2018-11-27T20:33:38.208Z,69.72
2018-11-27T20:38:40.838Z,69.21
2018-11-27T20:43:43.600Z,69.89
2018-11-27T20:48:46.171Z,69.36
2018-11-27T20:53:48.805Z,69.75
2018-11-27T20:58:52.194Z,69.76
2018-11-27T21:03:54.842Z,69.61
2018-11-27T21:08:57.482Z,69.22
2018-11-27T21:14:00.072Z,69.46
2018-11-27T21:19:02.670Z,68.95
2018-11-27T21:24:05.559Z,68.81
2018-11-27T21:29:08.266Z,69.04
2018-11-27T21:34:10.852Z,68.95
2018-11-27T21:39:13.541Z,69.63
2018-11-27T21:44:16.183Z,69.08
2018-11-27T21:49:18.806Z,68.99
2018-11-27T21:54:21.480Z,68.55
2018-11-27T21:59:24.092Z,68.36
2018-11-27T22:04:26.761Z,68.41
2018-11-27T22:09:29.404Z,68.52
2018-11-27T22:14:32.055Z,68.36
2018-11-27T22:19:34.725Z,68.59
2018-11-27T22:24:37.316Z,68.73
2018-11-27T22:29:39.937Z,68.23
2018-11-27T22:34:42.722Z,68.69
2018-11-27T22:39:45.330Z,68.32
2018-11-27T22:44:48.013Z,68.49
2018-11-27T22:49:50.632Z,68.79
2018-11-27T22:54:53.294Z,68.48
2018-11-27T22:59:55.888Z,68.58
2018-11-27T23:04:58.538Z,68.51
2018-11-27T23:10:01.168Z,68.83
2018-11-27T23:15:05.397Z,68.20
2018-11-27T23:20:11.664Z,68.16
2018-11-27T23:25:15.765Z,68.39
2018-11-27T23:30:20.448Z,68.49
2018-11-27T23:35:23.062Z,68.52
2018-11-27T23:40:25.762Z,67.84
2018-11-27T23:45:28.510Z,67.88
2018-11-27T23:50:31.132Z,68.03
2018-11-27T23:55:33.766Z,68.44
